createdAt,value
2023-05-22T00:02:14.090Z,23.68
2023-05-22T00:04:41.615Z,24.14
2023-05-22T00:07:08.808Z,23.90
2023-05-22T00:09:36.109Z,23.62
2023-05-22T00:12:03.633Z,22.21
2023-05-22T00:14:30.845Z,22.05
2023-05-22T00:16:58.568Z,23.50
2023-05-22T00:19:26.570Z,23.53
2023-05-22T00:21:54.327Z,22.17
2023-05-22T00:24:21.762Z,21.15
2023-05-22T00:26:49.266Z,20.82
2023-05-22T00:29:16.500Z,22.60
2023-05-22T00:31:43.672Z,23.60
2023-05-22T00:34:11.267Z,23.77
2023-05-22T00:36:38.521Z,23.05
2023-05-22T00:39:06.329Z,23.96
2023-05-22T00:41:34.085Z,23.33
2023-05-22T00:44:01.471Z,22.78
2023-05-22T00:46:28.920Z,22.40
2023-05-22T00:48:56.717Z,22.24
2023-05-22T00:51:24.153Z,22.50
2023-05-22T00:53:51.367Z,21.48
2023-05-22T00:56:18.909Z,21.06
2023-05-22T00:58:46.169Z,20.22
2023-05-22T01:01:13.832Z,19.32
2023-05-22T01:03:44.871Z,18.36
2023-05-22T01:06:18.031Z,18.51
2023-05-22T01:08:46.054Z,18.12
2023-05-22T01:11:25.666Z,17.88
2023-05-22T01:14:31.955Z,18.08
2023-05-22T01:17:24.699Z,17.53
2023-05-22T01:20:07.315Z,17.88
2023-05-22T01:23:08.891Z,19.56
2023-05-22T01:25:58.492Z,20.85
2023-05-22T01:28:50.823Z,22.31
2023-05-22T01:31:19.684Z,20.82
2023-05-22T01:33:48.709Z,19.57
2023-05-22T01:36:16.298Z,19.30
2023-05-22T01:38:43.816Z,19.82
2023-05-22T01:41:11.099Z,19.55
2023-05-22T01:43:38.361Z,20.04
2023-05-22T01:46:06.978Z,19.56
2023-05-22T01:48:35.348Z,19.27
2023-05-22T01:51:08.542Z,18.95
2023-05-22T01:53:39.798Z,18.50
2023-05-22T01:56:08.081Z,18.06
2023-05-22T01:58:53.253Z,18.33
2023-05-22T02:01:20.895Z,18.40
2023-05-22T02:03:48.477Z,19.25
2023-05-22T02:06:16.559Z,19.95
2023-05-22T02:08:43.793Z,19.74
2023-05-22T02:11:11.364Z,19.81
2023-05-22T02:13:38.603Z,19.98
2023-05-22T02:16:06.330Z,20.12
2023-05-22T02:18:33.922Z,20.19
2023-05-22T02:21:02.648Z,21.25
2023-05-22T02:23:31.247Z,21.50
2023-05-22T02:25:58.544Z,21.93
2023-05-22T02:28:26.974Z,22.77
2023-05-22T02:30:54.480Z,22.03
2023-05-22T02:33:21.785Z,19.90
2023-05-22T02:35:49.630Z,18.91
2023-05-22T02:38:17.213Z,19.02
2023-05-22T02:40:45.019Z,18.28
2023-05-22T02:43:12.260Z,17.59
2023-05-22T02:45:39.994Z,17.24
2023-05-22T02:48:07.444Z,17.62
2023-05-22T02:50:34.966Z,17.85
2023-05-22T02:53:02.728Z,19.68
2023-05-22T02:55:30.496Z,20.58
2023-05-22T02:57:57.935Z,21.76
2023-05-22T03:00:25.902Z,22.78
2023-05-22T03:02:55.366Z,23.04
2023-05-22T03:05:23.224Z,21.83
2023-05-22T03:07:53.003Z,20.23
2023-05-22T03:10:20.249Z,19.45
2023-05-22T03:12:48.166Z,18.19
2023-05-22T03:15:15.960Z,17.11
2023-05-22T03:17:43.541Z,16.64
2023-05-22T03:20:15.011Z,18.03
2023-05-22T03:22:43.862Z,18.38
2023-05-22T03:25:11.467Z,17.99
2023-05-22T03:27:41.131Z,18.42
2023-05-22T03:30:09.140Z,17.28
2023-05-22T03:32:38.087Z,17.86
2023-05-22T03:35:06.408Z,19.42
2023-05-22T03:37:34.449Z,18.34
2023-05-22T03:40:02.127Z,16.80
2023-05-22T03:42:29.684Z,16.87
2023-05-22T03:44:57.683Z,16.56
2023-05-22T03:47:25.954Z,16.59
2023-05-22T03:49:53.429Z,17.94
2023-05-22T03:52:22.764Z,17.60
2023-05-22T03:54:50.253Z,17.62
2023-05-22T03:57:19.973Z,16.90
2023-05-22T03:59:47.787Z,16.77
2023-05-22T04:02:17.118Z,16.60
2023-05-22T04:04:47.478Z,16.93
2023-05-22T04:07:15.023Z,17.17
2023-05-22T04:09:42.444Z,17.28
2023-05-22T04:12:10.513Z,17.58
2023-05-22T04:14:37.969Z,17.09
2023-05-22T04:17:05.435Z,17.44
2023-05-22T04:19:33.263Z,17.90
2023-05-22T04:22:00.904Z,17.68
2023-05-22T04:24:28.368Z,19.27
2023-05-22T04:26:56.229Z,19.48
2023-05-22T04:29:24.365Z,20.82
2023-05-22T04:31:54.426Z,21.28
2023-05-22T04:34:22.223Z,17.99
2023-05-22T04:36:49.747Z,17.46
2023-05-22T04:39:18.409Z,17.15
2023-05-22T04:41:46.351Z,17.56
2023-05-22T04:44:14.379Z,20.01
2023-05-22T04:46:42.372Z,21.73
2023-05-22T04:49:10.507Z,22.76
2023-05-22T04:51:37.971Z,22.49
2023-05-22T04:54:06.322Z,21.84
2023-05-22T04:56:36.880Z,22.43
2023-05-22T04:59:05.665Z,21.44
2023-05-22T05:01:35.174Z,22.32
2023-05-22T05:04:03.929Z,22.84
2023-05-22T05:06:31.524Z,23.58
2023-05-22T05:08:59.158Z,24.77
2023-05-22T05:11:26.622Z,25.00
2023-05-22T05:13:54.179Z,25.02
2023-05-22T05:16:23.364Z,25.23
2023-05-22T05:18:52.018Z,25.80
2023-05-22T05:21:21.395Z,25.14
2023-05-22T05:23:49.154Z,25.42
2023-05-22T05:26:16.630Z,26.62
2023-05-22T05:28:44.227Z,26.32
2023-05-22T05:31:12.984Z,24.83
2023-05-22T05:33:42.828Z,24.71
2023-05-22T05:36:10.980Z,25.02
2023-05-22T05:38:38.867Z,25.63
2023-05-22T05:41:07.074Z,25.93
2023-05-22T05:43:35.355Z,26.14
2023-05-22T05:46:03.718Z,25.04
2023-05-22T05:48:31.364Z,25.24
2023-05-22T05:50:59.220Z,24.71
2023-05-22T05:53:28.811Z,25.15
2023-05-22T05:55:56.648Z,25.14
2023-05-22T05:58:24.118Z,25.22
2023-05-22T06:00:53.794Z,25.76
2023-05-22T06:03:21.793Z,26.17
2023-05-22T06:05:49.907Z,26.04
2023-05-22T06:08:19.930Z,25.90
2023-05-22T06:10:48.256Z,25.26
2023-05-22T06:13:16.303Z,25.12
2023-05-22T06:15:43.866Z,25.74
2023-05-22T06:18:11.891Z,25.55
2023-05-22T06:20:39.777Z,25.19
2023-05-22T06:23:07.755Z,25.47
2023-05-22T06:25:35.560Z,25.42
2023-05-22T06:28:06.059Z,24.50
2023-05-22T06:30:40.065Z,25.34
2023-05-22T06:33:13.035Z,26.03
2023-05-22T06:35:42.034Z,26.20
2023-05-22T06:38:10.333Z,26.08
2023-05-22T06:40:38.248Z,26.31
2023-05-22T06:43:06.265Z,25.27
2023-05-22T06:45:34.339Z,25.79
2023-05-22T06:48:02.571Z,26.56
2023-05-22T06:50:31.582Z,26.63
2023-05-22T06:52:59.379Z,27.00
2023-05-22T06:55:27.097Z,28.06
2023-05-22T06:57:55.921Z,27.50
2023-05-22T07:00:24.116Z,27.71
2023-05-22T07:02:53.069Z,28.33
2023-05-22T07:05:20.823Z,28.50
2023-05-22T07:07:49.043Z,27.67
2023-05-22T07:10:16.471Z,28.07
2023-05-22T07:12:43.981Z,28.48
2023-05-22T07:15:13.525Z,28.44
2023-05-22T07:17:41.944Z,28.97
2023-05-22T07:20:10.712Z,29.20
2023-05-22T07:22:38.681Z,29.89
2023-05-22T07:25:06.662Z,29.46
2023-05-22T07:27:34.069Z,28.56
2023-05-22T07:30:01.986Z,28.99
2023-05-22T07:32:30.006Z,29.39
2023-05-22T07:34:57.610Z,28.52
2023-05-22T07:37:25.273Z,28.44
2023-05-22T07:39:52.489Z,29.35
2023-05-22T07:42:20.172Z,28.40
2023-05-22T07:44:48.440Z,28.23
2023-05-22T07:47:16.059Z,28.65
2023-05-22T07:49:43.820Z,28.76
2023-05-22T07:52:11.710Z,28.70
2023-05-22T07:54:39.578Z,29.53
2023-05-22T07:57:08.251Z,28.85
2023-05-22T07:59:37.767Z,28.72
2023-05-22T08:02:05.189Z,29.08
2023-05-22T08:04:32.789Z,28.76
2023-05-22T08:07:00.225Z,28.65
2023-05-22T08:09:27.466Z,28.30
2023-05-22T08:11:55.022Z,29.16
2023-05-22T08:14:22.359Z,28.67
2023-05-22T08:16:49.576Z,28.63
2023-05-22T08:19:17.248Z,28.54
2023-05-22T08:21:44.540Z,28.97
2023-05-22T08:24:11.928Z,29.52
2023-05-22T08:26:40.450Z,29.58
2023-05-22T08:29:07.695Z,29.85
2023-05-22T08:31:36.020Z,30.86
2023-05-22T08:34:04.915Z,30.58
2023-05-22T08:36:34.096Z,32.26
2023-05-22T08:39:01.940Z,31.12
2023-05-22T08:41:29.806Z,28.81
2023-05-22T08:43:57.433Z,29.10
2023-05-22T08:46:29.198Z,30.23
2023-05-22T08:48:57.085Z,31.17
2023-05-22T08:51:28.328Z,31.55
2023-05-22T08:53:56.128Z,32.17
2023-05-22T08:56:23.617Z,32.49
2023-05-22T08:58:51.263Z,32.92
2023-05-22T09:01:18.474Z,32.19
2023-05-22T09:03:47.175Z,31.67
2023-05-22T09:06:14.766Z,31.45
2023-05-22T09:08:42.886Z,32.11
2023-05-22T09:11:11.455Z,30.43
2023-05-22T09:13:39.011Z,31.62
2023-05-22T09:16:10.565Z,32.16
2023-05-22T09:18:39.717Z,29.94
2023-05-22T09:21:17.739Z,31.11
2023-05-22T09:23:54.741Z,30.94
2023-05-22T09:26:22.420Z,31.02
2023-05-22T09:28:49.682Z,31.14
2023-05-22T09:31:17.380Z,32.46
2023-05-22T09:33:45.055Z,32.14
2023-05-22T09:36:12.621Z,32.47
2023-05-22T09:38:40.078Z,32.78
2023-05-22T09:41:07.430Z,32.42
2023-05-22T09:43:34.609Z,29.98
2023-05-22T09:46:04.373Z,28.46
2023-05-22T09:48:38.220Z,30.83
2023-05-22T09:51:05.779Z,31.17
2023-05-22T09:53:33.167Z,31.46
2023-05-22T09:56:00.609Z,29.67
2023-05-22T09:58:29.900Z,28.22
2023-05-22T10:00:57.637Z,27.46
2023-05-22T10:03:26.453Z,27.97
2023-05-22T10:05:54.435Z,28.55
2023-05-22T10:08:22.105Z,28.15
2023-05-22T10:10:51.456Z,27.53
2023-05-22T10:13:18.870Z,29.02
2023-05-22T10:15:47.031Z,29.92
2023-05-22T10:18:16.010Z,29.27
2023-05-22T10:20:43.536Z,30.58
2023-05-22T10:23:11.207Z,31.81
2023-05-22T10:25:38.964Z,32.36
2023-05-22T10:28:07.030Z,32.31
2023-05-22T10:30:41.124Z,30.84
2023-05-22T10:33:11.706Z,31.17
2023-05-22T10:35:41.374Z,30.57
2023-05-22T10:38:27.790Z,29.38
2023-05-22T10:40:54.975Z,31.97
2023-05-22T10:43:22.720Z,31.23
2023-05-22T10:45:50.025Z,32.57
2023-05-22T10:48:17.308Z,32.74
2023-05-22T10:50:52.905Z,33.16
2023-05-22T10:53:21.406Z,33.42
2023-05-22T10:55:53.786Z,33.35
2023-05-22T10:58:28.885Z,33.14
2023-05-22T11:01:13.284Z,32.60
2023-05-22T11:04:00.832Z,30.16
2023-05-22T11:06:35.944Z,32.55
2023-05-22T11:09:18.951Z,32.96
2023-05-22T11:11:46.913Z,33.70
2023-05-22T11:14:16.566Z,32.21
2023-05-22T11:16:43.928Z,31.19
2023-05-22T11:19:22.631Z,30.96
2023-05-22T11:21:51.147Z,33.15
2023-05-22T11:24:18.979Z,33.54
2023-05-22T11:26:53.710Z,32.63
2023-05-22T11:29:21.311Z,33.43
2023-05-22T11:31:48.797Z,32.58
2023-05-22T11:34:16.328Z,32.60
2023-05-22T11:36:43.906Z,33.54
2023-05-22T11:39:14.744Z,33.73
2023-05-22T11:41:41.958Z,33.59
2023-05-22T11:44:09.652Z,34.92
2023-05-22T11:46:39.415Z,35.29
2023-05-22T11:49:07.154Z,33.87
2023-05-22T11:51:34.702Z,35.08
2023-05-22T11:54:02.001Z,33.42
2023-05-22T11:56:29.744Z,34.14
2023-05-22T11:58:57.246Z,34.38
2023-05-22T12:01:24.466Z,33.93
2023-05-22T12:03:52.124Z,33.56
2023-05-22T12:06:19.386Z,34.09
2023-05-22T12:08:46.625Z,34.61
2023-05-22T12:11:14.081Z,35.16
2023-05-22T12:13:41.415Z,34.10
2023-05-22T12:16:18.802Z,34.38
2023-05-22T12:18:46.387Z,34.47
2023-05-22T12:21:13.860Z,34.73
2023-05-22T12:23:51.165Z,35.45
2023-05-22T12:26:19.597Z,35.36
2023-05-22T12:28:47.057Z,34.86
2023-05-22T12:31:22.106Z,33.86
2023-05-22T12:33:49.904Z,33.32
2023-05-22T12:36:17.141Z,32.57
2023-05-22T12:38:44.449Z,31.45
2023-05-22T12:41:11.953Z,32.75
2023-05-22T12:43:39.158Z,33.13
2023-05-22T12:46:06.501Z,32.99
2023-05-22T12:48:34.116Z,32.25
2023-05-22T12:51:01.566Z,30.35
2023-05-22T12:53:29.024Z,30.42
2023-05-22T12:55:56.617Z,30.86
2023-05-22T12:58:23.854Z,31.71
2023-05-22T13:00:51.086Z,31.27
2023-05-22T13:03:18.663Z,32.36
2023-05-22T13:05:45.975Z,33.46
2023-05-22T13:08:13.206Z,33.60
2023-05-22T13:10:40.814Z,34.64
2023-05-22T13:13:08.015Z,34.73
2023-05-22T13:15:36.307Z,34.48
2023-05-22T13:18:04.296Z,34.71
2023-05-22T13:20:31.704Z,34.85
2023-05-22T13:22:58.964Z,34.39
2023-05-22T13:25:26.503Z,29.53
2023-05-22T13:27:53.723Z,30.31
2023-05-22T13:30:21.124Z,30.02
2023-05-22T13:32:48.842Z,31.65
2023-05-22T13:35:16.315Z,31.74
2023-05-22T13:37:43.691Z,32.13
2023-05-22T13:40:11.409Z,33.28
2023-05-22T13:42:39.052Z,33.78
2023-05-22T13:45:06.576Z,32.39
2023-05-22T13:47:34.286Z,33.77
2023-05-22T13:50:02.100Z,33.73
2023-05-22T13:52:29.970Z,32.99
2023-05-22T13:54:57.808Z,30.91
2023-05-22T13:57:24.990Z,30.03
2023-05-22T13:59:52.405Z,29.82
2023-05-22T14:02:20.911Z,29.63
2023-05-22T14:04:49.066Z,30.52
2023-05-22T14:07:16.979Z,30.44
2023-05-22T14:09:46.049Z,29.12
2023-05-22T14:12:13.987Z,29.64
2023-05-22T14:14:41.322Z,29.74
2023-05-22T14:17:09.130Z,31.40
2023-05-22T14:19:38.170Z,31.64
2023-05-22T14:22:05.376Z,30.64
2023-05-22T14:24:32.665Z,31.45
2023-05-22T14:27:00.099Z,31.84
2023-05-22T14:29:27.964Z,33.06
2023-05-22T14:31:55.605Z,31.79
2023-05-22T14:34:23.122Z,31.48
2023-05-22T14:36:50.366Z,29.96
2023-05-22T14:39:17.626Z,30.05
2023-05-22T14:41:45.108Z,30.84
2023-05-22T14:44:12.325Z,31.01
2023-05-22T14:46:39.611Z,29.33
2023-05-22T14:49:07.594Z,30.43
2023-05-22T14:51:34.993Z,31.74
2023-05-22T14:54:02.240Z,31.28
2023-05-22T14:56:29.756Z,31.41
2023-05-22T14:58:57.473Z,32.49
2023-05-22T15:01:24.770Z,33.80
2023-05-22T15:03:52.407Z,31.08
2023-05-22T15:06:19.669Z,29.78
2023-05-22T15:08:46.946Z,29.13
2023-05-22T15:11:14.456Z,29.85
2023-05-22T15:13:41.739Z,31.43
2023-05-22T15:16:09.086Z,29.38
2023-05-22T15:18:36.609Z,29.71
2023-05-22T15:21:04.220Z,30.67
2023-05-22T15:23:31.637Z,29.30
2023-05-22T15:25:59.198Z,31.07
2023-05-22T15:28:26.415Z,32.72
2023-05-22T15:30:53.597Z,32.25
2023-05-22T15:33:21.747Z,33.15
2023-05-22T15:35:49.101Z,33.33
2023-05-22T15:38:16.654Z,32.02
2023-05-22T15:40:44.571Z,32.01
2023-05-22T15:43:11.825Z,32.63
2023-05-22T15:45:39.334Z,32.20
2023-05-22T15:48:07.297Z,30.94
2023-05-22T15:50:34.674Z,31.51
2023-05-22T15:53:02.041Z,31.83
2023-05-22T15:55:29.592Z,31.70
2023-05-22T15:57:57.786Z,31.61
2023-05-22T16:00:26.070Z,32.04
2023-05-22T16:02:54.037Z,32.09
2023-05-22T16:05:21.516Z,32.22
2023-05-22T16:07:48.732Z,32.05
2023-05-22T16:10:16.239Z,32.10
2023-05-22T16:12:43.475Z,32.55
2023-05-22T16:15:10.948Z,31.98
2023-05-22T16:17:38.971Z,31.86
2023-05-22T16:20:07.072Z,31.66
2023-05-22T16:22:47.180Z,31.56
2023-05-22T16:25:18.530Z,31.14
2023-05-22T16:27:45.791Z,32.10
2023-05-22T16:30:14.878Z,32.67
2023-05-22T16:32:43.090Z,30.31
2023-05-22T16:35:11.229Z,28.73
2023-05-22T16:37:38.429Z,28.12
2023-05-22T16:40:07.952Z,27.55
2023-05-22T16:42:36.393Z,27.12
2023-05-22T16:45:04.171Z,26.95
2023-05-22T16:47:33.235Z,26.67
2023-05-22T16:50:00.515Z,26.30
2023-05-22T16:52:27.737Z,26.63
2023-05-22T16:54:55.306Z,27.19
2023-05-22T16:57:22.539Z,26.90
2023-05-22T16:59:49.769Z,27.24
2023-05-22T17:02:17.358Z,27.14
2023-05-22T17:04:44.648Z,26.80
2023-05-22T17:07:14.126Z,27.90
2023-05-22T17:09:41.669Z,29.15
2023-05-22T17:12:09.073Z,30.48
2023-05-22T17:14:36.375Z,29.17
2023-05-22T17:17:03.894Z,29.76
2023-05-22T17:19:32.285Z,30.03
2023-05-22T17:21:59.955Z,29.36
2023-05-22T17:24:27.869Z,28.54
2023-05-22T17:26:55.124Z,29.17
2023-05-22T17:29:22.381Z,29.72
2023-05-22T17:31:50.011Z,30.20
2023-05-22T17:34:17.450Z,27.96
2023-05-22T17:36:45.179Z,28.74
2023-05-22T17:39:12.831Z,26.83
2023-05-22T17:41:40.071Z,27.36
2023-05-22T17:44:07.375Z,28.67
2023-05-22T17:46:35.061Z,28.70
2023-05-22T17:49:02.682Z,29.46
2023-05-22T17:51:29.882Z,26.68
2023-05-22T17:53:59.013Z,27.36
2023-05-22T17:56:26.664Z,27.27
2023-05-22T17:58:53.944Z,27.55
2023-05-22T18:01:21.494Z,27.65
2023-05-22T18:03:49.275Z,27.77
2023-05-22T18:06:16.739Z,25.96
2023-05-22T18:08:44.196Z,27.05
2023-05-22T18:11:11.671Z,27.65
2023-05-22T18:13:38.851Z,27.49
2023-05-22T18:16:06.270Z,27.92
2023-05-22T18:18:33.778Z,28.14
2023-05-22T18:21:01.963Z,28.04
2023-05-22T18:23:29.163Z,27.90
2023-05-22T18:25:57.347Z,28.33
2023-05-22T18:28:26.608Z,29.32
2023-05-22T18:30:53.920Z,27.23
2023-05-22T18:33:22.829Z,27.10
2023-05-22T18:35:50.148Z,28.84
2023-05-22T18:38:17.637Z,29.16
2023-05-22T18:40:46.126Z,28.16
2023-05-22T18:43:13.428Z,27.69
2023-05-22T18:45:40.634Z,26.84
2023-05-22T18:48:08.356Z,27.23
2023-05-22T18:50:35.767Z,27.58
2023-05-22T18:53:02.958Z,27.72
2023-05-22T18:55:30.493Z,27.74
2023-05-22T18:57:57.738Z,28.59
2023-05-22T19:00:25.053Z,28.04
2023-05-22T19:02:52.602Z,27.24
2023-05-22T19:05:20.183Z,27.44
2023-05-22T19:07:47.397Z,27.21
2023-05-22T19:10:15.047Z,27.59
2023-05-22T19:12:42.293Z,27.83
2023-05-22T19:15:09.836Z,27.71
2023-05-22T19:17:37.405Z,26.73
2023-05-22T19:20:07.391Z,26.61
2023-05-22T19:22:34.864Z,26.58
2023-05-22T19:25:03.075Z,26.29
2023-05-22T19:27:31.000Z,26.07
2023-05-22T19:29:58.210Z,26.68
2023-05-22T19:32:27.410Z,28.47
2023-05-22T19:34:55.078Z,29.33
2023-05-22T19:37:22.413Z,28.73
2023-05-22T19:39:49.927Z,27.37
2023-05-22T19:42:18.346Z,24.51
2023-05-22T19:44:46.019Z,23.00
2023-05-22T19:47:13.892Z,26.09
2023-05-22T19:49:41.217Z,26.90
2023-05-22T19:52:08.528Z,26.82
2023-05-22T19:54:37.897Z,24.30
2023-05-22T19:57:05.123Z,24.20
2023-05-22T19:59:34.185Z,23.02
2023-05-22T20:02:04.030Z,22.17
2023-05-22T20:04:31.736Z,22.21
2023-05-22T20:06:59.043Z,22.10
2023-05-22T20:09:26.975Z,22.50
2023-05-22T20:11:54.553Z,22.26
2023-05-22T20:14:21.933Z,22.44
2023-05-22T20:16:49.245Z,21.97
2023-05-22T20:19:17.623Z,22.38
2023-05-22T20:21:44.904Z,22.06
2023-05-22T20:24:17.414Z,21.44
2023-05-22T20:26:44.962Z,21.39
2023-05-22T20:29:13.084Z,21.51
2023-05-22T20:31:40.353Z,22.21
2023-05-22T20:34:09.314Z,23.69
2023-05-22T20:36:36.689Z,23.19
2023-05-22T20:39:03.914Z,22.88
2023-05-22T20:41:31.716Z,21.91
2023-05-22T20:43:59.225Z,21.04
2023-05-22T20:46:26.915Z,20.93
2023-05-22T20:48:54.513Z,20.84
2023-05-22T20:51:21.647Z,20.90
2023-05-22T20:53:50.183Z,20.42
2023-05-22T20:56:17.892Z,19.98
2023-05-22T20:58:45.342Z,19.90
2023-05-22T21:01:12.838Z,20.10
2023-05-22T21:03:40.603Z,20.71
2023-05-22T21:06:07.880Z,19.96
2023-05-22T21:08:35.127Z,19.99
2023-05-22T21:11:02.648Z,20.05
2023-05-22T21:13:29.845Z,20.36
2023-05-22T21:15:57.067Z,20.30
2023-05-22T21:18:24.614Z,19.79
2023-05-22T21:20:51.790Z,19.66
2023-05-22T21:23:18.992Z,19.47
2023-05-22T21:25:46.469Z,19.77
2023-05-22T21:28:14.677Z,19.43
2023-05-22T21:30:42.121Z,19.87
2023-05-22T21:33:09.773Z,20.43
2023-05-22T21:35:38.008Z,20.17
2023-05-22T21:38:05.437Z,21.37
2023-05-22T21:40:33.016Z,21.02
2023-05-22T21:43:00.182Z,20.33
2023-05-22T21:45:27.385Z,19.92
2023-05-22T21:47:54.974Z,19.12
2023-05-22T21:50:22.232Z,19.03
2023-05-22T21:52:49.596Z,18.92
2023-05-22T21:55:17.302Z,18.73
2023-05-22T21:57:45.873Z,18.54
2023-05-22T22:00:13.977Z,18.76
2023-05-22T22:02:41.861Z,18.99
2023-05-22T22:05:11.673Z,20.03
2023-05-22T22:07:39.131Z,20.25
2023-05-22T22:10:07.658Z,20.25
2023-05-22T22:12:35.080Z,19.95
2023-05-22T22:15:02.552Z,19.70
2023-05-22T22:17:30.368Z,19.44
2023-05-22T22:19:58.099Z,19.97
2023-05-22T22:22:25.635Z,20.37
2023-05-22T22:24:53.407Z,20.37
2023-05-22T22:27:20.861Z,20.21
2023-05-22T22:29:48.495Z,20.05
2023-05-22T22:32:16.305Z,20.15
2023-05-22T22:34:45.239Z,19.21
2023-05-22T22:37:13.952Z,19.56
2023-05-22T22:39:41.449Z,19.16
2023-05-22T22:42:08.676Z,19.32
2023-05-22T22:44:36.304Z,19.57
2023-05-22T22:47:04.713Z,19.76
2023-05-22T22:49:32.173Z,21.10
2023-05-22T22:51:59.586Z,21.83
2023-05-22T22:54:27.300Z,20.87
2023-05-22T22:56:54.944Z,20.40
2023-05-22T22:59:22.395Z,19.31
2023-05-22T23:01:50.149Z,18.56
2023-05-22T23:04:17.726Z,18.51
2023-05-22T23:06:46.151Z,18.13
2023-05-22T23:09:14.763Z,18.51
2023-05-22T23:11:42.195Z,19.58
2023-05-22T23:14:09.912Z,19.32
2023-05-22T23:16:40.853Z,20.90
2023-05-22T23:19:10.334Z,20.64
2023-05-22T23:21:38.109Z,19.85
2023-05-22T23:24:05.750Z,20.44
2023-05-22T23:26:33.577Z,20.32
2023-05-22T23:29:01.350Z,19.17
2023-05-22T23:31:30.736Z,19.26
2023-05-22T23:33:58.531Z,18.58
2023-05-22T23:36:26.020Z,18.83
2023-05-22T23:38:53.237Z,19.13
2023-05-22T23:41:20.426Z,19.87
2023-05-22T23:43:47.883Z,20.01
2023-05-22T23:46:15.104Z,19.04
2023-05-22T23:48:42.544Z,19.09
2023-05-22T23:51:10.131Z,19.56
2023-05-22T23:53:37.536Z,19.56
2023-05-22T23:56:04.823Z,18.84
2023-05-22T23:58:32.404Z,18.62
